Time;durP1;ratioP1;P1;durP2;ratioP2;P2;SDS_P1;SDS_P2;PMS_P1;PMS_P2;Temp;Humidity;BMP_temperature;BMP_pressure;BME280_temperature;BME280_humidity;BME280_pressure;Samples;Min_cycle;Max_cycle;Signal;HPM_P1;HPM_P2
2021/04/05 00:00:19;;;;;;;11.07;1.83;;;4.90;99.90;;;;;;5013172;28;20033;-66
2021/04/05 00:02:45;;;;;;;17.02;2.55;;;4.80;99.90;;;;;;5013643;28;20037;-66
2021/04/05 00:05:42;;;;;;;9.77;2.22;;;4.80;99.90;;;;;;5014941;28;20397;-66
2021/04/05 00:08:08;;;;;;;21.20;3.63;;;4.80;99.90;;;;;;5013775;28;20037;-65
2021/04/05 00:10:50;;;;;;;11.68;2.45;;;4.80;99.90;;;;;;5012988;28;20045;-65
2021/04/05 00:13:21;;;;;;;14.13;2.97;;;4.70;99.90;;;;;;5016664;28;20115;-65
2021/04/05 00:15:47;;;;;;;17.75;3.53;;;4.70;99.90;;;;;;5013747;28;20107;-65
2021/04/05 00:18:15;;;;;;;20.52;4.00;;;4.70;99.90;;;;;;5007585;28;20040;-66
2021/04/05 00:20:59;;;;;;;16.55;3.20;;;4.70;99.90;;;;;;5013293;28;20045;-66
2021/04/05 00:23:25;;;;;;;26.85;3.83;;;4.80;99.90;;;;;;5016904;28;20473;-66
2021/04/05 00:25:51;;;;;;;23.00;3.80;;;4.80;99.90;;;;;;5014967;28;20093;-66
2021/04/05 00:28:17;;;;;;;20.95;3.78;;;4.80;99.90;;;;;;5014115;28;20107;-66
2021/04/05 00:30:43;;;;;;;16.27;4.22;;;4.70;99.90;;;;;;5017762;28;20022;-68
2021/04/05 00:33:10;;;;;;;18.30;3.30;;;4.70;99.90;;;;;;5014534;28;20039;-67
2021/04/05 00:35:39;;;;;;;22.08;2.75;;;4.60;99.90;;;;;;5014909;28;20033;-66
2021/04/05 00:38:09;;;;;;;22.33;3.22;;;4.60;99.90;;;;;;5015806;28;20457;-66
2021/04/05 00:40:46;;;;;;;19.67;3.15;;;4.60;99.90;;;;;;5016665;28;20079;-66
2021/04/05 00:43:13;;;;;;;13.48;2.15;;;4.60;99.90;;;;;;5014501;28;20057;-66
2021/04/05 00:45:39;;;;;;;13.30;2.50;;;4.60;99.90;;;;;;5014762;28;20374;-65
2021/04/05 00:48:06;;;;;;;13.27;2.97;;;4.60;99.90;;;;;;5014414;28;20797;-66
2021/04/05 00:50:52;;;;;;;17.55;2.63;;;4.60;99.90;;;;;;5010798;28;20067;-66
2021/04/05 00:53:21;;;;;;;20.70;3.17;;;4.70;99.90;;;;;;5013743;28;20067;-66
2021/04/05 00:55:47;;;;;;;21.65;3.45;;;4.70;99.90;;;;;;5014873;28;20087;-65
2021/04/05 00:58:17;;;;;;;17.00;2.10;;;4.70;99.90;;;;;;5015275;28;20057;-65
2021/04/05 01:00:50;;;;;;;14.13;2.28;;;4.70;99.90;;;;;;5014898;28;20167;-65
2021/04/05 01:03:19;;;;;;;17.08;2.83;;;4.60;99.90;;;;;;5016160;28;20308;-65
2021/04/05 01:05:47;;;;;;;12.02;1.65;;;4.60;99.90;;;;;;5014392;28;20037;-65
2021/04/05 01:08:16;;;;;;;10.55;1.75;;;4.60;99.90;;;;;;5011916;28;20037;-65
2021/04/05 01:10:44;;;;;;;17.65;1.90;;;4.60;99.90;;;;;;5012761;28;20041;-65
2021/04/05 01:13:09;;;;;;;18.00;2.97;;;4.60;99.90;;;;;;5013142;28;20041;-65
2021/04/05 01:15:36;;;;;;;17.50;2.22;;;4.60;99.90;;;;;;5016022;28;20029;-65
2021/04/05 01:18:04;;;;;;;7.25;1.30;;;4.50;99.90;;;;;;5014234;28;20033;-65
2021/04/05 01:20:30;;;;;;;3.35;0.80;;;4.40;99.90;;;;;;5018141;28;20054;-64
2021/04/05 01:22:56;;;;;;;3.40;0.70;;;4.30;99.90;;;;;;5016882;28;20457;-65
2021/04/05 01:25:22;;;;;;;6.35;1.25;;;4.20;99.90;;;;;;5017437;28;20381;-65
2021/04/05 01:27:51;;;;;;;8.85;1.30;;;4.20;99.90;;;;;;5019629;28;20034;-66
2021/04/05 01:30:28;;;;;;;9.82;1.83;;;4.20;99.90;;;;;;5016295;28;20029;-65
2021/04/05 01:33:10;;;;;;;12.75;2.13;;;4.20;99.90;;;;;;5018056;28;20083;-66
2021/04/05 01:35:52;;;;;;;9.73;1.40;;;4.20;99.90;;;;;;5019359;28;20017;-66
2021/04/05 01:38:24;;;;;;;7.53;1.73;;;4.20;99.90;;;;;;5013591;28;20029;-65
2021/04/05 01:40:53;;;;;;;9.70;2.03;;;4.20;99.90;;;;;;5015800;28;20072;-65
2021/04/05 01:43:19;;;;;;;13.80;3.05;;;4.20;99.90;;;;;;5015662;28;20587;-64
2021/04/05 01:45:45;;;;;;;10.50;1.85;;;4.30;99.90;;;;;;5017169;28;20864;-64
2021/04/05 01:48:13;;;;;;;9.93;1.45;;;4.20;99.90;;;;;;5017084;28;20385;-65
2021/04/05 01:50:41;;;;;;;7.65;1.90;;;4.20;99.90;;;;;;5018142;28;20358;-64
2021/04/05 01:53:08;;;;;;;17.17;2.35;;;4.20;99.90;;;;;;5017898;28;20587;-64
2021/04/05 01:55:36;;;;;;;14.15;1.95;;;4.20;99.90;;;;;;5016406;28;20611;-64
2021/04/05 01:58:04;;;;;;;14.10;2.38;;;4.10;99.90;;;;;;5017386;28;20037;-64
2021/04/05 02:00:36;;;;;;;16.20;2.38;;;4.10;99.90;;;;;;5017666;28;20029;-65
2021/04/05 02:03:07;;;;;;;8.75;2.50;;;4.10;99.90;;;;;;5018208;28;20037;-65
2021/04/05 02:05:34;;;;;;;;;;;3.90;99.90;;;;;;5017661;28;20068;-65
2021/04/05 02:08:00;;;;;;;13.23;1.73;;;3.80;99.90;;;;;;5034318;28;19920;-64
2021/04/05 02:10:27;;;;;;;10.60;2.17;;;3.70;99.90;;;;;;5018497;28;20441;-66
2021/04/05 02:12:55;;;;;;;9.55;1.10;;;3.70;99.90;;;;;;5016624;28;20034;-66
2021/04/05 02:15:24;;;;;;;7.80;1.60;;;3.60;99.90;;;;;;5014236;28;20143;-66
2021/04/05 02:17:50;;;;;;;6.57;1.02;;;3.60;99.90;;;;;;5017771;28;20144;-66
2021/04/05 02:20:17;;;;;;;6.00;0.70;;;3.40;99.90;;;;;;5017322;28;20129;-66
2021/04/05 02:22:45;;;;;;;3.63;1.00;;;3.20;99.90;;;;;;5016818;28;20078;-66
2021/04/05 02:25:17;;;;;;;8.00;1.02;;;3.00;99.90;;;;;;5014404;28;20757;-66
2021/04/05 02:27:45;;;;;;;7.70;1.63;;;2.80;99.90;;;;;;5017232;28;20333;-66
2021/04/05 02:30:22;;;;;;;8.20;1.45;;;2.80;99.90;;;;;;5015010;28;20029;-66
2021/04/05 02:33:02;;;;;;;8.23;1.45;;;2.80;99.90;;;;;;5016263;28;20037;-67
2021/04/05 02:35:30;;;;;;;8.70;1.65;;;2.80;99.90;;;;;;5017163;28;20064;-67
2021/04/05 02:37:58;;;;;;;7.20;1.08;;;2.80;99.90;;;;;;5018306;28;20042;-67
2021/04/05 02:40:24;;;;;;;11.70;3.10;;;2.80;99.90;;;;;;5017070;28;20347;-67
2021/04/05 02:42:53;;;;;;;8.35;1.70;;;2.70;99.90;;;;;;5017944;28;20087;-67
2021/04/05 02:45:21;;;;;;;12.20;1.65;;;2.70;99.90;;;;;;5013626;28;20787;-67
2021/04/05 02:47:49;;;;;;;9.50;1.95;;;2.70;99.90;;;;;;5016628;28;20041;-69
2021/04/05 02:50:15;;;;;;;18.77;2.20;;;2.70;99.90;;;;;;5015494;28;20029;-67
2021/04/05 02:52:42;;;;;;;11.35;2.00;;;2.60;99.90;;;;;;5017241;28;20025;-66
2021/04/05 02:55:11;;;;;;;16.40;2.47;;;2.40;99.90;;;;;;5015692;28;20560;-67
2021/04/05 02:57:42;;;;;;;15.90;2.10;;;2.40;99.90;;;;;;5016687;28;20028;-67
2021/04/05 03:00:10;;;;;;;9.98;2.00;;;2.40;99.90;;;;;;5014840;28;20041;-66
2021/04/05 03:02:37;;;;;;;10.75;2.20;;;2.40;99.90;;;;;;5014551;28;20132;-67
2021/04/05 03:05:06;;;;;;;8.82;1.90;;;2.30;99.90;;;;;;5015009;28;20029;-66
2021/04/05 03:07:33;;;;;;;7.20;1.60;;;2.20;99.90;;;;;;5015636;28;20414;-66
2021/04/05 03:10:00;;;;;;;11.63;1.90;;;2.20;99.90;;;;;;5011799;28;20060;-66
2021/04/05 03:12:28;;;;;;;10.77;2.30;;;2.20;99.90;;;;;;5015372;28;20030;-66
2021/04/05 03:14:55;;;;;;;9.00;2.03;;;2.20;99.90;;;;;;5015109;28;20948;-66
2021/04/05 03:17:22;;;;;;;15.38;3.00;;;2.20;99.90;;;;;;5015258;28;20037;-67
2021/04/05 03:19:49;;;;;;;9.40;2.08;;;2.20;99.90;;;;;;5016134;28;20058;-66
2021/04/05 03:22:18;;;;;;;17.88;3.00;;;2.20;99.90;;;;;;5017318;28;20057;-66
2021/04/05 03:24:44;;;;;;;11.15;2.03;;;2.10;99.90;;;;;;5012624;28;20029;-65
2021/04/05 03:27:11;;;;;;;9.52;2.00;;;2.00;99.90;;;;;;5016563;28;20042;-66
2021/04/05 03:29:39;;;;;;;13.50;1.63;;;2.00;99.90;;;;;;5016424;28;20035;-66
2021/04/05 03:32:07;;;;;;;9.95;1.95;;;1.90;99.90;;;;;;5018316;28;20199;-66
2021/04/05 03:34:36;;;;;;;14.18;2.58;;;1.80;99.90;;;;;;5017523;28;20419;-66
2021/04/05 03:37:08;;;;;;;10.18;1.67;;;1.90;99.90;;;;;;5014652;28;20038;-66
2021/04/05 03:39:36;;;;;;;9.85;1.95;;;1.80;99.90;;;;;;5016999;28;20049;-66
2021/04/05 03:42:05;;;;;;;8.38;1.88;;;1.80;99.90;;;;;;5016143;28;20520;-66
2021/04/05 03:44:47;;;;;;;7.22;1.88;;;1.80;99.90;;;;;;5015778;28;20113;-65
2021/04/05 03:47:40;;;;;;;12.65;2.55;;;1.80;99.90;;;;;;5014812;28;20039;-65
2021/04/05 03:50:17;;;;;;;14.50;1.98;;;1.80;99.90;;;;;;5012701;28;20025;-65
2021/04/05 03:52:51;;;;;;;9.13;2.38;;;1.80;99.90;;;;;;5015842;28;20031;-65
2021/04/05 03:55:21;;;;;;;13.63;3.97;;;1.80;99.90;;;;;;5015069;28;20041;-65
2021/04/05 03:57:49;;;;;;;15.50;2.22;;;1.70;99.90;;;;;;5016251;28;20537;-65
2021/04/05 04:00:18;;;;;;;15.60;2.42;;;1.80;99.90;;;;;;5010776;28;20037;-64
2021/04/05 04:02:50;;;;;;;18.02;2.63;;;1.80;99.90;;;;;;5016319;28;20052;-65
2021/04/05 04:05:39;;;;;;;9.05;2.10;;;1.80;99.90;;;;;;5015077;28;20096;-65
2021/04/05 04:08:13;;;;;;;8.77;1.52;;;1.70;99.90;;;;;;5012037;28;20033;-65
2021/04/05 04:10:44;;;;;;;7.43;1.67;;;1.60;99.90;;;;;;5012598;28;20036;-65
2021/04/05 04:13:11;;;;;;;7.22;1.20;;;1.60;99.90;;;;;;5015911;28;20029;-65
2021/04/05 04:15:38;;;;;;;2.72;1.15;;;1.40;99.90;;;;;;5010932;28;20033;-65
2021/04/05 04:18:04;;;;;;;3.97;1.17;;;1.40;99.90;;;;;;5015703;28;20128;-66
2021/04/05 04:20:32;;;;;;;7.68;2.80;;;1.40;99.90;;;;;;5013269;28;20584;-65
2021/04/05 04:22:59;;;;;;;9.15;1.73;;;1.30;99.90;;;;;;5015639;28;20111;-66
2021/04/05 04:25:25;;;;;;;3.55;0.75;;;1.20;99.90;;;;;;5013009;28;20574;-66
2021/04/05 04:27:51;;;;;;;5.35;1.25;;;1.00;99.90;;;;;;5015865;28;20144;-66
2021/04/05 04:30:32;;;;;;;3.72;1.02;;;1.10;99.90;;;;;;5010070;28;20052;-66
2021/04/05 04:33:08;;;;;;;6.03;1.15;;;1.10;99.90;;;;;;5018985;28;20069;-66
2021/04/05 04:35:36;;;;;;;5.22;1.02;;;1.00;99.90;;;;;;5015107;28;20099;-66
2021/04/05 04:38:03;;;;;;;6.53;1.65;;;0.90;99.90;;;;;;5015247;28;20034;-66
2021/04/05 04:40:31;;;;;;;12.30;1.80;;;0.90;99.90;;;;;;5018072;28;20018;-66
2021/04/05 04:43:03;;;;;;;6.20;1.55;;;0.90;99.90;;;;;;5014784;28;20160;-66
2021/04/05 04:45:29;;;;;;;18.55;3.35;;;0.80;99.90;;;;;;5014626;28;20052;-67
2021/04/05 04:47:56;;;;;;;11.07;1.85;;;0.70;99.90;;;;;;5012828;28;20481;-66
2021/04/05 04:50:23;;;;;;;14.18;3.20;;;0.70;99.90;;;;;;5014614;28;20202;-66
2021/04/05 04:52:49;;;;;;;12.82;2.50;;;0.70;99.90;;;;;;5014191;28;20037;-66
2021/04/05 04:55:16;;;;;;;15.63;2.25;;;0.70;99.90;;;;;;5020566;28;20563;-66
2021/04/05 04:57:43;;;;;;;10.75;1.77;;;0.70;99.90;;;;;;5017422;28;20036;-66
2021/04/05 05:00:10;;;;;;;25.17;5.10;;;0.70;99.90;;;;;;5016057;28;20056;-67
2021/04/05 05:02:39;;;;;;;11.32;2.40;;;0.80;99.90;;;;;;5007292;28;20049;-67
2021/04/05 05:05:07;;;;;;;17.83;2.57;;;0.80;99.90;;;;;;5016728;28;20116;-67
2021/04/05 05:07:35;;;;;;;10.80;1.92;;;0.80;99.90;;;;;;5016121;28;20034;-66
2021/04/05 05:10:03;;;;;;;17.27;2.53;;;0.70;99.90;;;;;;5018304;28;20100;-67
2021/04/05 05:12:30;;;;;;;16.83;2.10;;;0.70;99.90;;;;;;5015211;28;20549;-66
2021/04/05 05:14:56;;;;;;;12.38;2.50;;;0.80;99.90;;;;;;5019101;28;20476;-67
2021/04/05 05:17:23;;;;;;;12.45;2.53;;;0.80;99.90;;;;;;5015939;28;20022;-67
2021/04/05 05:19:51;;;;;;;20.55;3.58;;;0.80;99.90;;;;;;5017780;28;20171;-67
2021/04/05 05:22:19;;;;;;;15.75;2.30;;;0.90;99.90;;;;;;5014646;28;20048;-67
2021/04/05 05:24:47;;;;;;;18.08;3.00;;;1.00;99.90;;;;;;5019347;28;20083;-67
2021/04/05 05:27:14;;;;;;;15.68;2.25;;;1.00;99.90;;;;;;5016778;28;20470;-66
2021/04/05 05:29:40;;;;;;;19.95;5.47;;;1.00;99.90;;;;;;5006469;28;20029;-67
2021/04/05 05:32:07;;;;;;;25.58;7.78;;;1.00;99.90;;;;;;5014310;28;20762;-67
2021/04/05 05:34:34;;;;;;;28.58;7.55;;;1.00;99.90;;;;;;5011212;28;20029;-67
2021/04/05 05:37:00;;;;;;;39.95;8.65;;;1.00;99.90;;;;;;5015471;28;20140;-67
2021/04/05 05:39:26;;;;;;;25.10;6.85;;;1.00;99.90;;;;;;5018624;28;20063;-67
2021/04/05 05:42:13;;;;;;;21.30;4.53;;;1.10;99.90;;;;;;5016200;28;20077;-67
2021/04/05 05:45:01;;;;;;;15.07;4.70;;;1.10;99.90;;;;;;5011339;28;20109;-67
2021/04/05 05:47:48;;;;;;;13.90;3.45;;;1.20;99.90;;;;;;5012936;28;20040;-67
2021/04/05 05:50:31;;;;;;;20.55;5.75;;;1.30;99.90;;;;;;5016005;28;20431;-67
2021/04/05 05:53:38;;;;;;;16.30;4.00;;;1.40;99.90;;;;;;5014355;28;20060;-67
2021/04/05 05:56:22;;;;;;;9.60;2.97;;;1.50;99.90;;;;;;5018807;28;20048;-67
2021/04/05 05:59:10;;;;;;;16.17;3.97;;;1.60;99.90;;;;;;5012004;28;20045;-67
2021/04/05 06:01:48;;;;;;;18.83;4.13;;;1.60;99.90;;;;;;5017425;28;20501;-68
2021/04/05 06:04:32;;;;;;;10.57;2.05;;;1.60;99.90;;;;;;5017859;28;20028;-68
2021/04/05 06:07:06;;;;;;;8.00;2.05;;;1.70;99.90;;;;;;5016036;28;20056;-66
2021/04/05 06:09:58;;;;;;;9.10;1.80;;;1.60;99.90;;;;;;5017714;28;20481;-66
2021/04/05 06:13:06;;;;;;;8.05;1.98;;;1.70;99.90;;;;;;5014128;28;20036;-66
2021/04/05 06:15:46;;;;;;;5.65;1.40;;;1.80;99.90;;;;;;5030027;28;20682;-66
2021/04/05 06:18:23;;;;;;;10.30;2.38;;;1.80;99.90;;;;;;5016269;28;20086;-66
2021/04/05 06:21:00;;;;;;;9.35;2.10;;;1.80;99.90;;;;;;5015480;28;20050;-65
2021/04/05 06:23:45;;;;;;;8.60;1.80;;;1.90;99.90;;;;;;5018399;28;20034;-66
2021/04/05 06:26:16;;;;;;;10.55;1.65;;;1.90;99.90;;;;;;5017028;28;20136;-66
2021/04/05 06:29:13;;;;;;;14.40;2.30;;;1.90;99.90;;;;;;5015569;28;20087;-66
2021/04/05 06:31:51;;;;;;;13.15;2.72;;;1.80;99.90;;;;;;5018976;28;20562;-66
2021/04/05 06:34:35;;;;;;;7.00;2.50;;;1.80;99.90;;;;;;5017039;28;20083;-65
2021/04/05 06:37:32;;;;;;;19.92;2.55;;;1.80;99.90;;;;;;5014440;28;20025;-65
2021/04/05 06:40:04;;;;;;;13.43;2.05;;;1.60;99.90;;;;;;5015462;28;20030;-65
2021/04/05 06:43:00;;;;;;;16.33;2.92;;;1.60;99.90;;;;;;5009597;28;20055;-66
2021/04/05 06:45:34;;;;;;;8.20;2.85;;;1.70;99.90;;;;;;5011131;28;20840;-66
2021/04/05 06:48:06;;;;;;;24.15;8.80;;;2.20;99.90;;;;;;5014997;28;20128;-66
2021/04/05 06:50:47;;;;;;;21.08;7.95;;;2.20;99.90;;;;;;5015301;28;20031;-66
2021/04/05 06:53:38;;;;;;;36.97;19.83;;;2.00;99.90;;;;;;5012297;28;20021;-66
2021/04/05 06:56:19;;;;;;;16.25;7.25;;;2.20;99.90;;;;;;5015663;28;20026;-66
2021/04/05 06:59:11;;;;;;;14.43;3.50;;;2.50;99.90;;;;;;5015499;28;20034;-66
2021/04/05 07:02:13;;;;;;;6.60;1.92;;;2.90;99.90;;;;;;5014787;28;20097;-67
2021/04/05 07:04:58;;;;;;;9.20;1.90;;;3.10;99.90;;;;;;5016828;28;20804;-67
2021/04/05 07:07:45;;;;;;;11.57;2.13;;;3.50;99.90;;;;;;5016932;28;20630;-66
2021/04/05 07:10:35;;;;;;;19.70;2.95;;;3.60;99.90;;;;;;5016400;28;20040;-68
2021/04/05 07:13:15;;;;;;;12.70;2.05;;;3.20;99.90;;;;;;5017201;28;20033;-66
2021/04/05 07:16:03;;;;;;;18.80;2.95;;;2.80;99.90;;;;;;5018038;28;20033;-67
2021/04/05 07:19:10;;;;;;;12.73;2.22;;;2.70;99.90;;;;;;5011066;28;20029;-65
2021/04/05 07:22:10;;;;;;;9.05;1.27;;;2.60;99.90;;;;;;5013543;28;20056;-66
2021/04/05 07:24:54;;;;;;;10.60;1.13;;;2.70;99.90;;;;;;5014764;28;20030;-66
2021/04/05 07:27:27;;;;;;;10.45;1.75;;;3.00;99.90;;;;;;5015382;28;20036;-67
2021/04/05 07:30:24;;;;;;;8.32;1.70;;;3.20;99.90;;;;;;5012285;28;20029;-67
2021/04/05 07:33:15;;;;;;;7.78;1.40;;;3.10;99.90;;;;;;5007708;28;20037;-67
2021/04/05 07:35:49;;;;;;;7.95;1.80;;;3.20;99.90;;;;;;5010865;28;20052;-67
2021/04/05 07:38:18;;;;;;;6.80;1.63;;;3.00;99.90;;;;;;5015494;28;20044;-67
2021/04/05 07:41:00;;;;;;;15.05;2.50;;;2.70;99.90;;;;;;5010637;28;20557;-66
2021/04/05 07:43:53;;;;;;;4.32;1.10;;;2.50;99.90;;;;;;5012964;28;20577;-67
2021/04/05 07:46:38;;;;;;;14.13;2.65;;;2.20;99.90;;;;;;5013894;28;20108;-69
2021/04/05 07:49:31;;;;;;;6.22;1.45;;;1.90;99.90;;;;;;5013986;28;20040;-69
2021/04/05 07:52:06;;;;;;;10.55;1.52;;;1.60;99.90;;;;;;5014520;28;20084;-69
2021/04/05 07:54:39;;;;;;;5.82;0.95;;;1.60;99.90;;;;;;5011761;28;20366;-66
2021/04/05 07:57:23;;;;;;;6.85;0.93;;;1.60;99.90;;;;;;5004120;28;20084;-67
2021/04/05 08:00:12;;;;;;;6.53;1.20;;;1.80;99.90;;;;;;5009681;28;20107;-67
2021/04/05 08:02:56;;;;;;;3.38;0.90;;;2.00;99.90;;;;;;5001351;28;20158;-67
2021/04/05 08:05:41;;;;;;;11.48;2.25;;;1.80;99.90;;;;;;5008271;28;20041;-69
2021/04/05 08:08:30;;;;;;;17.27;2.28;;;1.30;99.90;;;;;;5011582;28;20099;-69
2021/04/05 08:11:33;;;;;;;18.98;2.38;;;1.10;99.90;;;;;;5002593;28;20084;-67
2021/04/05 08:14:13;;;;;;;5.30;0.82;;;0.90;99.90;;;;;;5009427;28;20084;-67
2021/04/05 08:16:58;;;;;;;;;;;0.80;99.90;;;;;;5012709;28;20029;-69
2021/04/05 08:19:57;;;;;;;6.72;1.92;;;0.60;99.90;;;;;;5012857;28;20324;-69
2021/04/05 08:22:43;;;;;;;5.35;1.15;;;0.60;99.90;;;;;;5009220;28;20025;-69
2021/04/05 08:25:31;;;;;;;13.43;2.47;;;0.70;99.90;;;;;;5002421;28;20029;-69
2021/04/05 08:28:20;;;;;;;12.13;1.92;;;0.90;99.90;;;;;;5007091;28;20030;-68
2021/04/05 08:31:11;;;;;;;7.77;1.40;;;0.90;99.90;;;;;;5012586;28;20511;-69
2021/04/05 08:34:05;;;;;;;4.00;1.65;;;0.90;99.90;;;;;;5007262;28;20592;-69
2021/04/05 08:36:47;;;;;;;2.95;0.80;;;0.90;99.90;;;;;;5000056;28;20057;-68
2021/04/05 08:39:17;;;;;;;5.50;1.05;;;0.90;99.90;;;;;;5009085;28;20125;-69
2021/04/05 08:41:55;;;;;;;11.60;3.50;;;1.10;99.90;;;;;;5007162;28;20041;-69
2021/04/05 08:44:39;;;;;;;10.45;1.70;;;1.20;99.90;;;;;;5006656;28;20069;-69
2021/04/05 08:47:14;;;;;;;13.30;1.55;;;1.40;99.90;;;;;;5011706;28;20040;-69
2021/04/05 08:49:45;;;;;;;9.90;1.80;;;1.60;99.90;;;;;;5008474;28;20030;-69
2021/04/05 08:52:13;;;;;;;8.82;1.60;;;1.70;99.90;;;;;;5004440;28;20070;-69
2021/04/05 08:54:41;;;;;;;6.75;1.10;;;1.80;99.90;;;;;;5010315;28;20469;-70
2021/04/05 08:57:15;;;;;;;3.92;0.82;;;1.80;99.90;;;;;;5012019;28;20161;-70
2021/04/05 09:00:00;;;;;;;4.15;1.40;;;1.80;99.90;;;;;;5001551;28;20473;-70
2021/04/05 09:02:50;;;;;;;9.18;1.30;;;2.10;99.90;;;;;;4997620;28;20516;-70
2021/04/05 09:05:24;;;;;;;10.63;1.70;;;2.50;99.90;;;;;;4999997;28;20036;-70
2021/04/05 09:08:09;;;;;;;10.00;2.55;;;3.50;99.90;;;;;;5001372;28;20171;-71
2021/04/05 09:11:02;;;;;;;14.02;2.83;;;4.20;99.90;;;;;;4997873;28;20401;-71
2021/04/05 09:13:39;;;;;;;18.58;4.35;;;4.90;99.90;;;;;;4998214;28;20044;-71
2021/04/05 09:16:33;;;;;;;17.10;3.05;;;5.30;99.90;;;;;;4999542;28;20029;-71
2021/04/05 09:19:17;;;;;;;11.38;1.55;;;4.50;99.90;;;;;;5000235;28;20367;-71
2021/04/05 09:22:21;;;;;;;8.82;1.27;;;3.10;99.90;;;;;;4999287;28;20848;-71
2021/04/05 09:24:50;;;;;;;4.78;2.00;;;2.40;99.90;;;;;;5000963;28;20541;-71
2021/04/05 09:27:54;;;;;;;12.27;1.80;;;2.20;99.90;;;;;;4997799;28;20981;-71
2021/04/05 09:30:46;;;;;;;5.95;1.23;;;2.10;99.90;;;;;;5000491;28;20033;-71
2021/04/05 09:33:27;;;;;;;7.00;2.08;;;2.10;99.90;;;;;;4995679;28;20037;-71
2021/04/05 09:36:02;;;;;;;14.63;2.58;;;2.20;99.90;;;;;;5001724;28;20219;-71
2021/04/05 09:38:46;;;;;;;20.02;2.75;;;2.40;99.90;;;;;;4999742;28;20036;-71
2021/04/05 09:41:31;;;;;;;14.88;2.65;;;2.50;99.90;;;;;;5005794;28;20033;-71
2021/04/05 09:44:34;;;;;;;10.15;2.15;;;2.70;99.90;;;;;;5011957;28;20033;-71
2021/04/05 09:47:25;;;;;;;15.10;2.30;;;3.00;99.90;;;;;;5014721;28;20042;-71
2021/04/05 09:50:22;;;;;;;14.30;2.17;;;3.40;99.90;;;;;;5010546;28;20040;-71
2021/04/05 09:53:13;;;;;;;17.35;2.97;;;4.10;99.90;;;;;;5010281;28;21281;-71
2021/04/05 09:55:54;;;;;;;17.52;3.50;;;4.90;99.90;;;;;;5014665;28;20026;-71
2021/04/05 09:58:27;;;;;;;;;;;5.00;99.90;;;;;;5014878;28;20029;-70
2021/04/05 10:01:15;;;;;;;13.77;4.15;;;4.80;99.90;;;;;;5013272;28;19917;-71
2021/04/05 10:03:43;;;;;;;10.98;2.50;;;5.50;99.90;;;;;;5012951;28;20036;-70
2021/04/05 10:06:18;;;;;;;13.45;2.42;;;6.10;99.90;;;;;;5011469;28;20048;-70
2021/04/05 10:08:47;;;;;;;10.45;1.85;;;6.30;99.90;;;;;;5009060;28;20099;-70
2021/04/05 10:11:14;;;;;;;17.05;2.90;;;6.40;99.90;;;;;;5012483;28;20124;-71
2021/04/05 10:14:04;;;;;;;12.02;2.25;;;6.40;99.90;;;;;;5011982;28;20026;-71
2021/04/05 10:16:32;;;;;;;12.10;3.22;;;6.40;99.90;;;;;;5013941;28;20029;-71
2021/04/05 10:19:06;;;;;;;15.55;2.60;;;6.60;99.90;;;;;;5009021;28;20119;-70
2021/04/05 10:21:36;;;;;;;11.88;2.38;;;6.60;99.90;;;;;;5013054;28;20401;-70
2021/04/05 10:24:04;;;;;;;13.40;2.95;;;6.80;99.90;;;;;;5011651;28;20029;-70
2021/04/05 10:26:34;;;;;;;18.48;3.72;;;6.50;99.90;;;;;;5009436;28;20504;-69
2021/04/05 10:29:03;;;;;;;16.10;3.08;;;6.50;99.90;;;;;;5009405;28;20041;-69
2021/04/05 10:31:31;;;;;;;15.60;3.00;;;6.40;99.90;;;;;;5015706;28;20050;-69
2021/04/05 10:34:06;;;;;;;15.82;3.13;;;6.40;99.90;;;;;;5010327;28;20032;-68
2021/04/05 10:36:43;;;;;;;19.52;3.50;;;6.70;99.90;;;;;;5010217;28;20033;-68
2021/04/05 10:39:09;;;;;;;14.02;3.08;;;6.80;99.90;;;;;;4998833;28;20030;-67
2021/04/05 10:41:44;;;;;;;17.25;2.72;;;6.50;99.90;;;;;;4999946;28;20563;-66
2021/04/05 10:44:14;;;;;;;17.05;3.30;;;6.30;99.90;;;;;;4999728;28;20754;-66
2021/04/05 10:46:48;;;;;;;10.07;3.00;;;6.60;99.90;;;;;;5000134;28;20449;-67
2021/04/05 10:49:23;;;;;;;22.40;4.07;;;6.80;99.90;;;;;;5005009;28;20052;-66
2021/04/05 10:51:53;;;;;;;12.15;2.15;;;6.80;99.90;;;;;;5005786;28;20397;-66
2021/04/05 10:54:25;;;;;;;13.77;3.42;;;6.80;99.90;;;;;;5003592;28;20025;-65
2021/04/05 10:57:24;;;;;;;12.50;3.15;;;6.70;99.90;;;;;;5013898;28;20219;-66
2021/04/05 10:59:56;;;;;;;21.52;3.15;;;6.60;99.90;;;;;;5007643;28;20041;-66
2021/04/05 11:02:33;;;;;;;25.95;6.38;;;6.50;99.90;;;;;;5012611;28;20037;-66
2021/04/05 11:05:16;;;;;;;15.95;3.00;;;6.30;99.90;;;;;;5009012;28;20034;-66
2021/04/05 11:07:46;;;;;;;17.75;2.67;;;6.40;99.90;;;;;;5009819;28;20254;-66
2021/04/05 11:10:20;;;;;;;;;;;6.30;99.90;;;;;;5013721;28;20040;-65
2021/04/05 11:13:11;;;;;;;26.77;3.22;;;6.40;99.90;;;;;;5011809;28;20410;-65
2021/04/05 11:15:40;;;;;;;23.02;3.63;;;6.80;99.90;;;;;;5008919;28;20515;-66
2021/04/05 11:18:10;;;;;;;22.80;3.60;;;7.20;99.90;;;;;;5014573;28;20034;-66
2021/04/05 11:20:39;;;;;;;20.90;3.42;;;7.10;99.90;;;;;;5012166;28;20547;-64
2021/04/05 11:23:19;;;;;;;19.30;3.63;;;7.20;99.90;;;;;;5010546;28;20460;-65
2021/04/05 11:25:49;;;;;;;12.93;2.55;;;7.10;99.90;;;;;;5002478;28;20033;-65
2021/04/05 11:28:21;;;;;;;10.80;2.03;;;7.00;99.90;;;;;;5009656;28;20426;-65
2021/04/05 11:30:48;;;;;;;8.50;1.90;;;7.20;99.90;;;;;;5010356;28;20042;-64
2021/04/05 11:33:22;;;;;;;14.73;3.80;;;7.20;99.90;;;;;;5008524;28;20033;-65
2021/04/05 11:35:52;;;;;;;13.05;2.72;;;7.20;99.90;;;;;;5010810;28;20029;-65
2021/04/05 11:38:21;;;;;;;15.50;3.22;;;7.30;99.90;;;;;;5013258;28;20033;-64
2021/04/05 11:40:49;;;;;;;14.10;1.77;;;7.50;99.90;;;;;;5014037;28;20037;-64
2021/04/05 11:43:18;;;;;;;15.20;2.58;;;7.80;99.90;;;;;;5012386;28;20036;-65
2021/04/05 11:45:48;;;;;;;9.25;2.15;;;8.20;99.90;;;;;;5012710;28;20049;-64
2021/04/05 11:48:20;;;;;;;11.25;2.25;;;8.10;99.90;;;;;;5012452;28;20057;-65
2021/04/05 11:50:48;;;;;;;14.00;2.95;;;7.90;99.90;;;;;;5010483;28;20434;-64
2021/04/05 11:53:32;;;;;;;20.13;3.75;;;7.40;99.90;;;;;;5014929;28;20076;-65
2021/04/05 11:56:04;;;;;;;15.18;2.67;;;6.90;99.90;;;;;;5006934;28;20037;-65
2021/04/05 11:58:37;;;;;;;14.55;2.80;;;6.90;99.90;;;;;;4999659;28;20022;-65
2021/04/05 12:01:09;;;;;;;11.93;3.03;;;7.20;99.90;;;;;;5002143;28;20034;-64
2021/04/05 12:03:45;;;;;;;13.48;2.92;;;7.30;99.90;;;;;;5001678;28;20061;-66
2021/04/05 12:06:15;;;;;;;22.67;3.92;;;7.60;99.90;;;;;;4998609;28;20034;-65
2021/04/05 12:08:58;;;;;;;;;;;7.50;99.90;;;;;;5000154;28;20449;-65
2021/04/05 12:11:32;;;;;;;9.32;2.05;;;7.80;99.90;;;;;;5000765;28;19943;-65
2021/04/05 12:14:07;;;;;;;8.00;2.15;;;8.20;99.90;;;;;;5001975;28;20034;-65
2021/04/05 12:16:34;;;;;;;11.13;1.85;;;8.10;99.90;;;;;;4999249;28;20095;-66
2021/04/05 12:19:01;;;;;;;10.10;2.90;;;7.80;99.90;;;;;;5002136;28;20122;-65
2021/04/05 12:21:31;;;;;;;13.52;2.80;;;7.60;99.90;;;;;;5001212;28;20033;-66
2021/04/05 12:24:03;;;;;;;15.95;3.53;;;8.00;99.90;;;;;;5001605;28;20049;-64
2021/04/05 12:26:30;;;;;;;12.25;2.35;;;8.10;99.90;;;;;;4997691;28;20029;-65
2021/04/05 12:29:11;;;;;;;8.25;2.33;;;8.50;99.90;;;;;;4999988;28;20021;-66
2021/04/05 12:31:38;;;;;;;14.55;3.17;;;8.60;99.90;;;;;;5000486;28;20041;-64
2021/04/05 12:34:27;;;;;;;14.27;2.38;;;8.20;99.90;;;;;;4999583;28;20022;-65
2021/04/05 12:36:54;;;;;;;16.88;2.67;;;8.10;99.90;;;;;;4996629;28;20038;-65
2021/04/05 12:39:26;;;;;;;16.08;2.88;;;8.30;99.90;;;;;;4999105;28;20034;-66
2021/04/05 12:41:53;;;;;;;13.88;2.65;;;7.90;99.90;;;;;;4996109;28;22483;-66
2021/04/05 12:44:30;;;;;;;21.13;4.45;;;7.50;99.90;;;;;;4998780;28;20473;-65
2021/04/05 12:47:00;;;;;;;23.15;4.45;;;7.30;99.90;;;;;;5001073;28;20033;-66
2021/04/05 12:49:34;;;;;;;18.50;3.88;;;7.50;99.90;;;;;;5000085;28;20120;-65
2021/04/05 12:52:03;;;;;;;27.95;3.90;;;7.50;99.90;;;;;;5002793;28;20038;-66
2021/04/05 12:54:31;;;;;;;30.80;4.22;;;7.50;99.90;;;;;;5013971;28;20814;-65
2021/04/05 12:57:03;;;;;;;22.63;4.85;;;7.90;99.90;;;;;;5005373;28;20582;-66
2021/04/05 12:59:33;;;;;;;22.42;4.13;;;7.70;99.90;;;;;;5009429;28;20036;-65
2021/04/05 13:02:11;;;;;;;22.38;4.18;;;7.80;99.90;;;;;;5007041;28;20744;-65
2021/04/05 13:04:42;;;;;;;23.60;4.75;;;7.80;99.90;;;;;;5006138;28;20187;-66
2021/04/05 13:07:18;;;;;;;18.73;4.68;;;7.70;99.90;;;;;;5004986;28;20118;-66
2021/04/05 13:10:13;;;;;;;15.18;3.13;;;7.50;99.90;;;;;;5001365;28;20033;-65
2021/04/05 13:12:53;;;;;;;19.70;4.72;;;8.10;99.90;;;;;;5007410;28;20103;-66
2021/04/05 13:15:28;;;;;;;15.55;3.03;;;8.50;99.90;;;;;;5004359;28;20037;-66
2021/04/05 13:17:56;;;;;;;19.33;4.50;;;7.90;99.90;;;;;;4989973;28;21155;-66
2021/04/05 13:20:29;;;;;;;26.17;4.32;;;7.10;99.90;;;;;;4987591;28;20059;-63
2021/04/05 13:22:59;;;;;;;29.13;5.28;;;6.70;99.90;;;;;;4996155;28;20448;-63
2021/04/05 13:25:51;;;;;;;21.42;4.40;;;6.60;99.90;;;;;;4991847;28;20030;-65
2021/04/05 13:28:28;;;;;;;26.02;4.07;;;6.70;99.90;;;;;;5002799;28;20203;-65
2021/04/05 13:30:59;;;;;;;16.17;3.88;;;6.60;99.90;;;;;;5003811;28;20029;-66